メインページ
METAR-TAF:

METAR-TAF

空港 :

パース, オーストラリア

パース空港

緯度: 31-56S, 経度: 115-57E, 海抜: 20m

現時点の気象観測

当レポートは33分前の10:00(UTC)に作成
の風 19kt
気温 27°C
湿度 42%
気圧 1012 hPa
視程10km以上
1,500メートル以下は雲なし、積乱雲なし

METAR: YPPH 231000Z 17019KT CAVOK 27/13 Q1012 NOSIG

時間: 18:33 (10:33 UTC)

予報

当レポートは5時間29分前の05:04(UTC)に作成
予報は23日の 06時(UTC)から 24日の 12時(UTC)まで有効
の風 14kt
視程10km以上
高度4500ftの雲は散在している
23日の 1500時(UTC)から
東/南東の風 17kt、最大27ktの突風を伴う
視程10km以上
1,500メートル以下は雲なし、積乱雲なし
24日の 0100時(UTC)から
の風 14kt
視程10km以上
1,500メートル以下は雲なし、積乱雲なし

TAF: YPPH 230504Z 2306/2412 18014KT 9999 SCT045 FM231500 11017G27KT CAVOK FM240100 10014KT CAVOK

4,000以上の空港の気象観測と天気予報(METAR報とTAF報)

利用可能な観測所は地図上に黄色い丸と赤い丸で示す。

丸の上にカーソルを重ねると観測所名を参照できる。

次にクリックすると気象観測と天気予報を参照できる。

マップの切り替え:黒色「×」印の緑ボタンをクリックして拡大、「-」印の緑ボタンをクリックして縮小、緑色の三角印をクリックして隣りの地図に切り替え


METAR-TAF: